Time;durP1;ratioP1;P1;durP2;ratioP2;P2;SDS_P1;SDS_P2;PMS_P1;PMS_P2;Temp;Humidity;BMP_temperature;BMP_pressure;BME280_temperature;BME280_humidity;BME280_pressure;Samples;Min_cycle;Max_cycle;Signal;HPM_P1;HPM_P2
2022/03/04 00:01:40;;;;;;;22.27;12.30;;;;;;;;;;5011640;28;20657;-89
2022/03/04 00:04:44;;;;;;;20.97;12.27;;;;;;;;;;5015494;28;21186;-89
2022/03/04 00:07:48;;;;;;;21.60;11.60;;;;;;;;;;5034875;28;20602;-89
2022/03/04 00:10:52;;;;;;;23.53;12.70;;;;;;;;;;5027936;28;20609;-89
2022/03/04 00:13:56;;;;;;;17.83;10.97;;;;;;;;;;5023036;28;20623;-88
2022/03/04 00:17:01;;;;;;;18.80;12.33;;;;;;;;;;5013318;28;20543;-89
2022/03/04 00:20:05;;;;;;;20.77;12.40;;;;;;;;;;5037067;28;20629;-89
2022/03/04 00:23:09;;;;;;;19.97;12.27;;;;;;;;;;5041688;28;21254;-88
2022/03/04 00:26:13;;;;;;;24.93;12.47;;;;;;;;;;5038583;28;21192;-89
2022/03/04 00:29:18;;;;;;;20.50;12.10;;;;;;;;;;5025489;28;20725;-89
2022/03/04 00:32:22;;;;;;;18.90;10.70;;;;;;;;;;5030125;28;20661;-89
2022/03/04 00:35:26;;;;;;;20.07;11.47;;;;;;;;;;5029273;28;20546;-88
2022/03/04 00:38:30;;;;;;;17.87;10.70;;;;;;;;;;5040004;28;20621;-89
2022/03/04 00:41:35;;;;;;;21.83;11.50;;;;;;;;;;5038909;28;20673;-87
2022/03/04 00:44:39;;;;;;;19.57;10.60;;;;;;;;;;5019182;28;20585;-87
2022/03/04 00:47:43;;;;;;;18.60;10.70;;;;;;;;;;5041718;28;20605;-87
2022/03/04 00:50:49;;;;;;;21.27;12.03;;;;;;;;;;5030432;28;21089;-87
2022/03/04 00:53:53;;;;;;;21.90;11.57;;;;;;;;;;5041926;28;20547;-87
2022/03/04 00:56:57;;;;;;;19.13;10.90;;;;;;;;;;5030553;28;20538;-87
2022/03/04 01:00:03;;;;;;;20.40;10.63;;;;;;;;;;5041412;28;20605;-87
2022/03/04 01:03:07;;;;;;;19.37;10.43;;;;;;;;;;5041484;28;20621;-87
2022/03/04 01:06:11;;;;;;;19.37;10.73;;;;;;;;;;5041490;28;20598;-86
2022/03/04 01:09:15;;;;;;;24.03;11.30;;;;;;;;;;5041487;28;20672;-87
2022/03/04 01:12:19;;;;;;;22.00;11.50;;;;;;;;;;5041456;28;21001;-87
2022/03/04 01:15:23;;;;;;;17.93;11.10;;;;;;;;;;5018877;28;21175;-87
2022/03/04 01:18:28;;;;;;;22.20;11.30;;;;;;;;;;5010678;28;20539;-87
2022/03/04 01:21:32;;;;;;;20.27;11.30;;;;;;;;;;5021382;28;20625;-87
2022/03/04 01:24:36;;;;;;;20.90;11.73;;;;;;;;;;5010497;28;20539;-87
2022/03/04 01:27:40;;;;;;;20.50;11.53;;;;;;;;;;5041530;28;20614;-87
2022/03/04 01:30:47;;;;;;;26.60;12.17;;;;;;;;;;5018634;28;20550;-87
2022/03/04 01:33:51;;;;;;;19.93;11.13;;;;;;;;;;5018858;28;21188;-87
2022/03/04 01:36:55;;;;;;;21.30;11.17;;;;;;;;;;5029681;28;20618;-87
2022/03/04 01:40:00;;;;;;;23.23;12.27;;;;;;;;;;5029751;28;20597;-87
2022/03/04 01:43:04;;;;;;;21.20;11.10;;;;;;;;;;5029406;28;20637;-86
2022/03/04 01:46:12;;;;;;;20.93;12.13;;;;;;;;;;5029947;28;20542;-87
2022/03/04 01:49:17;;;;;;;22.77;11.53;;;;;;;;;;5000900;28;20662;-87
2022/03/04 01:52:21;;;;;;;18.30;11.50;;;;;;;;;;5025713;28;20634;-86
2022/03/04 01:55:25;;;;;;;20.73;11.77;;;;;;;;;;5027346;28;20539;-86
2022/03/04 01:58:31;;;;;;;21.67;11.90;;;;;;;;;;5004833;28;20546;-86
2022/03/04 02:01:35;;;;;;;19.70;11.20;;;;;;;;;;5026375;28;20629;-86
2022/03/04 02:04:40;;;;;;;19.50;11.37;;;;;;;;;;5026945;28;20560;-86
2022/03/04 02:07:44;;;;;;;19.97;11.87;;;;;;;;;;5004534;28;20551;-86
2022/03/04 02:10:48;;;;;;;23.20;12.33;;;;;;;;;;5004532;28;20537;-86
2022/03/04 02:13:52;;;;;;;20.50;12.07;;;;;;;;;;5026721;28;20552;-86
2022/03/04 02:16:57;;;;;;;21.17;11.77;;;;;;;;;;5004273;28;21101;-86
2022/03/04 02:20:03;;;;;;;19.03;11.03;;;;;;;;;;5026963;28;20547;-86
2022/03/04 02:23:12;;;;;;;20.97;10.77;;;;;;;;;;5014493;28;20627;-86
2022/03/04 02:26:16;;;;;;;21.37;11.10;;;;;;;;;;5026494;28;21089;-86
2022/03/04 02:29:21;;;;;;;20.67;11.33;;;;;;;;;;5003920;28;20993;-86
2022/03/04 02:32:25;;;;;;;20.27;11.43;;;;;;;;;;5014671;28;20986;-86
2022/03/04 02:35:32;;;;;;;21.80;11.97;;;;;;;;;;5004616;28;20535;-86
2022/03/04 02:38:36;;;;;;;19.47;12.00;;;;;;;;;;5003517;28;20899;-86
2022/03/04 02:41:41;;;;;;;21.10;11.83;;;;;;;;;;5003112;28;20637;-86
2022/03/04 02:44:45;;;;;;;21.60;12.87;;;;;;;;;;5025851;28;20594;-86
2022/03/04 02:47:49;;;;;;;22.20;12.20;;;;;;;;;;5003587;28;20539;-86
2022/03/04 02:50:53;;;;;;;21.37;12.30;;;;;;;;;;5002840;28;20594;-86
2022/03/04 02:53:57;;;;;;;22.23;11.53;;;;;;;;;;5025696;28;20611;-86
2022/03/04 02:57:01;;;;;;;23.80;11.80;;;;;;;;;;5003654;28;21100;-86
2022/03/04 03:00:06;;;;;;;22.30;12.17;;;;;;;;;;5025738;28;20539;-86
2022/03/04 03:03:10;;;;;;;22.77;12.27;;;;;;;;;;5003453;28;20610;-87
2022/03/04 03:06:14;;;;;;;23.67;12.33;;;;;;;;;;5003590;28;20543;-86
2022/03/04 03:09:19;;;;;;;21.70;11.53;;;;;;;;;;5025844;28;20602;-86
2022/03/04 03:12:23;;;;;;;28.17;12.50;;;;;;;;;;5003355;28;20625;-86
2022/03/04 03:15:27;;;;;;;21.70;12.27;;;;;;;;;;5003610;28;20547;-86
2022/03/04 03:18:31;;;;;;;19.23;11.67;;;;;;;;;;5025929;28;20890;-86
2022/03/04 03:21:36;;;;;;;21.10;11.73;;;;;;;;;;5003299;28;20622;-86
2022/03/04 03:24:40;;;;;;;21.80;11.30;;;;;;;;;;5003199;28;20575;-86
2022/03/04 03:27:45;;;;;;;20.80;11.47;;;;;;;;;;5025304;28;21089;-86
2022/03/04 03:30:49;;;;;;;24.63;11.93;;;;;;;;;;5024851;28;21240;-86
2022/03/04 03:33:53;;;;;;;22.17;12.43;;;;;;;;;;5025213;28;20543;-85
2022/03/04 03:36:59;;;;;;;23.53;12.90;;;;;;;;;;5002745;28;20551;-86
2022/03/04 03:40:05;;;;;;;22.00;11.83;;;;;;;;;;5014205;28;20602;-85
2022/03/04 03:43:09;;;;;;;21.07;12.13;;;;;;;;;;5002532;28;20638;-86
2022/03/04 03:46:14;;;;;;;21.37;11.73;;;;;;;;;;5002029;28;20891;-86
2022/03/04 03:49:18;;;;;;;21.03;12.57;;;;;;;;;;5025439;28;20603;-86
2022/03/04 03:52:22;;;;;;;23.80;12.03;;;;;;;;;;5002908;28;20630;-86
2022/03/04 03:55:27;;;;;;;20.88;11.85;;;;;;;;;;5003000;28;20555;-85
2022/03/04 03:58:31;;;;;;;20.83;11.50;;;;;;;;;;5002338;28;20184;-86
2022/03/04 04:01:36;;;;;;;22.33;12.77;;;;;;;;;;5002223;28;20645;-86
2022/03/04 04:04:41;;;;;;;24.83;12.63;;;;;;;;;;5002681;28;20543;-86
2022/03/04 04:07:45;;;;;;;21.48;11.98;;;;;;;;;;5024924;28;20547;-86
2022/03/04 04:10:49;;;;;;;23.60;12.32;;;;;;;;;;5024230;28;20215;-86
2022/03/04 04:13:54;;;;;;;22.13;12.40;;;;;;;;;;5001377;28;20188;-86
2022/03/04 04:16:59;;;;;;;26.58;12.50;;;;;;;;;;5002553;28;20539;-86
2022/03/04 04:20:03;;;;;;;23.47;12.47;;;;;;;;;;5001962;28;20682;-86
2022/03/04 04:23:07;;;;;;;21.95;12.43;;;;;;;;;;5001859;28;20626;-86
2022/03/04 04:26:11;;;;;;;22.30;12.63;;;;;;;;;;5002087;28;20188;-86
2022/03/04 04:29:16;;;;;;;24.80;12.43;;;;;;;;;;5001767;28;21098;-87
2022/03/04 04:32:20;;;;;;;23.60;12.67;;;;;;;;;;5023946;28;20626;-87
2022/03/04 04:35:24;;;;;;;23.70;12.43;;;;;;;;;;5023997;28;20543;-87
2022/03/04 04:38:28;;;;;;;24.73;13.48;;;;;;;;;;5024597;28;20192;-87
2022/03/04 04:41:32;;;;;;;24.23;13.38;;;;;;;;;;5023460;28;20235;-87
2022/03/04 04:44:36;;;;;;;25.33;13.40;;;;;;;;;;5023745;28;20200;-87
2022/03/04 04:47:40;;;;;;;28.15;13.82;;;;;;;;;;5023301;28;20183;-87
2022/03/04 04:50:44;;;;;;;24.58;13.05;;;;;;;;;;5023584;28;20216;-87
2022/03/04 04:53:48;;;;;;;25.50;14.60;;;;;;;;;;5024203;28;20188;-87
2022/03/04 04:56:53;;;;;;;23.20;12.48;;;;;;;;;;5023880;28;20548;-87
2022/03/04 04:59:57;;;;;;;23.48;14.13;;;;;;;;;;5001069;28;20184;-87
2022/03/04 05:03:01;;;;;;;30.98;13.77;;;;;;;;;;5023223;28;20227;-87
2022/03/04 05:06:05;;;;;;;24.55;13.82;;;;;;;;;;5001239;28;20184;-87
2022/03/04 05:09:09;;;;;;;24.13;14.00;;;;;;;;;;5012515;28;20188;-87
2022/03/04 05:12:14;;;;;;;25.77;13.97;;;;;;;;;;5023199;28;20224;-89
2022/03/04 05:15:18;;;;;;;23.60;13.13;;;;;;;;;;5011990;28;20552;-87
2022/03/04 05:18:21;;;;;;;24.40;13.35;;;;;;;;;;5001125;28;20191;-87
2022/03/04 05:21:25;;;;;;;26.27;14.75;;;;;;;;;;5001252;28;20702;-87
2022/03/04 05:24:30;;;;;;;25.30;13.93;;;;;;;;;;5022982;28;20204;-87
2022/03/04 05:27:34;;;;;;;23.23;13.25;;;;;;;;;;5000762;28;20575;-87
2022/03/04 05:30:38;;;;;;;27.30;13.05;;;;;;;;;;5001628;28;20229;-87
2022/03/04 05:33:42;;;;;;;23.27;12.70;;;;;;;;;;5012928;28;20187;-86
2022/03/04 05:36:46;;;;;;;28.75;13.50;;;;;;;;;;5001181;28;20184;-86
2022/03/04 05:39:52;;;;;;;28.70;13.75;;;;;;;;;;5023073;28;20179;-87
2022/03/04 05:42:56;;;;;;;23.33;12.57;;;;;;;;;;5022949;28;20231;-86
2022/03/04 05:46:01;;;;;;;23.35;13.25;;;;;;;;;;5012141;28;20176;-87
2022/03/04 05:49:06;;;;;;;24.33;13.88;;;;;;;;;;5022967;28;20188;-86
2022/03/04 05:52:10;;;;;;;22.52;12.55;;;;;;;;;;5011885;28;20224;-87
2022/03/04 05:55:16;;;;;;;26.90;12.93;;;;;;;;;;5023585;28;20184;-87
2022/03/04 05:58:20;;;;;;;26.95;12.93;;;;;;;;;;5023042;28;20176;-86
2022/03/04 06:01:24;;;;;;;24.55;13.07;;;;;;;;;;5023248;28;20215;-87
2022/03/04 06:04:28;;;;;;;24.58;13.15;;;;;;;;;;5012014;28;20591;-87
2022/03/04 06:07:35;;;;;;;21.35;12.30;;;;;;;;;;5012459;28;20204;-87
2022/03/04 06:10:39;;;;;;;24.25;13.77;;;;;;;;;;5011905;28;20215;-86
2022/03/04 06:13:43;;;;;;;22.95;12.75;;;;;;;;;;5010597;28;20647;-88
2022/03/04 06:16:47;;;;;;;23.00;12.90;;;;;;;;;;5021292;28;20223;-88
2022/03/04 06:19:52;;;;;;;25.15;12.85;;;;;;;;;;5029703;28;20187;-88
2022/03/04 06:22:55;;;;;;;21.75;12.45;;;;;;;;;;5029343;28;20218;-88
2022/03/04 06:26:00;;;;;;;26.60;13.07;;;;;;;;;;5026290;28;20191;-87
2022/03/04 06:29:04;;;;;;;24.02;12.95;;;;;;;;;;5029803;28;20199;-88
2022/03/04 06:32:09;;;;;;;24.00;12.75;;;;;;;;;;5029443;28;20578;-88
2022/03/04 06:35:13;;;;;;;20.92;11.82;;;;;;;;;;5038723;28;20199;-87
2022/03/04 06:38:17;;;;;;;21.35;11.70;;;;;;;;;;5033047;28;20195;-87
2022/03/04 06:41:22;;;;;;;23.53;12.37;;;;;;;;;;5061003;23;20239;-85
2022/03/04 06:44:25;;;;;;;28.60;14.23;;;;;;;;;;4973779;28;20621;-84
2022/03/04 06:47:30;;;;;;;24.63;13.10;;;;;;;;;;4973042;28;20600;-84
2022/03/04 06:50:34;;;;;;;26.33;13.60;;;;;;;;;;4984070;28;20596;-85
2022/03/04 06:53:38;;;;;;;26.03;13.67;;;;;;;;;;4961767;28;20636;-87
2022/03/04 06:56:43;;;;;;;26.73;13.20;;;;;;;;;;4951381;28;20621;-87
2022/03/04 06:59:47;;;;;;;32.60;15.10;;;;;;;;;;4932348;29;20558;-87
2022/03/04 07:02:52;;;;;;;24.70;14.30;;;;;;;;;;4955397;28;20652;-87
2022/03/04 07:05:56;;;;;;;25.53;13.97;;;;;;;;;;4936247;28;20636;-87
2022/03/04 07:09:01;;;;;;;33.73;16.73;;;;;;;;;;4933812;29;20594;-87
2022/03/04 07:12:05;;;;;;;42.03;21.37;;;;;;;;;;4953943;29;20654;-87
2022/03/04 07:15:10;;;;;;;40.07;18.23;;;;;;;;;;4967103;28;21202;-87
2022/03/04 07:18:14;;;;;;;29.07;16.00;;;;;;;;;;4950237;28;20629;-87
2022/03/04 07:21:19;;;;;;;24.57;14.70;;;;;;;;;;4951428;28;20550;-87
2022/03/04 07:24:23;;;;;;;27.93;15.87;;;;;;;;;;4961891;28;20605;-87
2022/03/04 07:27:28;;;;;;;32.50;17.53;;;;;;;;;;4950521;28;20605;-86
2022/03/04 07:30:32;;;;;;;27.50;14.77;;;;;;;;;;4958498;29;20614;-86
2022/03/04 07:33:37;;;;;;;27.93;15.90;;;;;;;;;;4959310;28;20552;-85
2022/03/04 07:36:41;;;;;;;28.80;15.20;;;;;;;;;;5051665;28;20883;-84
2022/03/04 07:39:45;;;;;;;28.13;16.10;;;;;;;;;;5043795;28;20890;-87
2022/03/04 07:42:49;;;;;;;25.03;15.17;;;;;;;;;;4960833;28;20650;-87
2022/03/04 07:45:53;;;;;;;26.43;15.90;;;;;;;;;;4942119;29;20591;-87
2022/03/04 07:48:57;;;;;;;28.83;15.73;;;;;;;;;;4942030;29;20588;-87
2022/03/04 07:52:02;;;;;;;32.70;18.33;;;;;;;;;;4942323;29;20658;-87
2022/03/04 07:55:09;;;;;;;34.00;18.77;;;;;;;;;;4964227;28;20598;-87
2022/03/04 07:58:13;;;;;;;31.43;17.93;;;;;;;;;;4950672;28;20543;-87
2022/03/04 08:01:17;;;;;;;30.60;18.27;;;;;;;;;;4950269;28;20543;-87
2022/03/04 08:04:21;;;;;;;29.80;17.47;;;;;;;;;;4950184;28;20599;-86
2022/03/04 08:07:26;;;;;;;33.87;17.03;;;;;;;;;;4952229;28;20542;-86
2022/03/04 08:10:30;;;;;;;28.03;16.43;;;;;;;;;;4949950;28;20634;-86
2022/03/04 08:13:36;;;;;;;42.00;20.77;;;;;;;;;;4950600;28;20546;-85
2022/03/04 08:16:42;;;;;;;40.83;19.80;;;;;;;;;;4961670;28;20582;-86
2022/03/04 08:19:46;;;;;;;28.80;16.27;;;;;;;;;;4961950;28;20605;-85
2022/03/04 08:22:50;;;;;;;32.70;17.63;;;;;;;;;;4961953;28;20626;-85
2022/03/04 08:25:55;;;;;;;26.80;16.67;;;;;;;;;;4953040;28;21164;-86
2022/03/04 08:28:59;;;;;;;31.90;16.97;;;;;;;;;;4961600;28;20957;-84
2022/03/04 08:32:04;;;;;;;25.60;16.40;;;;;;;;;;4961532;28;20658;-85
2022/03/04 08:35:09;;;;;;;32.17;17.37;;;;;;;;;;4962285;28;20602;-85
2022/03/04 08:38:13;;;;;;;29.10;17.67;;;;;;;;;;4949665;28;20615;-88
2022/03/04 08:41:17;;;;;;;30.23;17.07;;;;;;;;;;4950502;28;20503;-88
2022/03/04 08:44:21;;;;;;;29.70;17.80;;;;;;;;;;4949767;28;21186;-86
2022/03/04 08:47:26;;;;;;;28.20;17.03;;;;;;;;;;4950235;28;20199;-85
2022/03/04 08:50:30;;;;;;;32.80;17.23;;;;;;;;;;4961015;28;20187;-86
2022/03/04 08:53:34;;;;;;;35.90;20.53;;;;;;;;;;4960646;28;20191;-85
2022/03/04 08:56:38;;;;;;;33.67;18.13;;;;;;;;;;4949809;28;20206;-88
2022/03/04 08:59:42;;;;;;;38.23;21.37;;;;;;;;;;4948987;28;20190;-88
2022/03/04 09:02:47;;;;;;;36.87;18.63;;;;;;;;;;4960284;28;20210;-86
2022/03/04 09:05:51;;;;;;;27.57;17.27;;;;;;;;;;4960964;28;20549;-86
2022/03/04 09:08:55;;;;;;;29.57;17.13;;;;;;;;;;4960674;28;20195;-86
2022/03/04 09:11:58;;;;;;;32.03;17.60;;;;;;;;;;4961230;28;20239;-88
2022/03/04 09:15:04;;;;;;;28.03;16.37;;;;;;;;;;4949545;28;20186;-88
2022/03/04 09:18:08;;;;;;;32.13;17.43;;;;;;;;;;4950889;28;20641;-89
2022/03/04 09:21:12;;;;;;;26.33;16.67;;;;;;;;;;4959859;28;20198;-89
2022/03/04 09:24:28;;;;;;;29.70;17.50;;;;;;;;;;4961210;28;20198;-89
2022/03/04 09:27:35;;;;;;;30.00;17.77;;;;;;;;;;4949788;28;20519;-87
2022/03/04 09:30:39;;;;;;;26.70;16.17;;;;;;;;;;4960322;28;20207;-87
2022/03/04 09:33:43;;;;;;;25.17;15.77;;;;;;;;;;4960321;28;20205;-85
2022/03/04 09:36:47;;;;;;;24.10;15.70;;;;;;;;;;4949496;28;20193;-86
2022/03/04 09:39:52;;;;;;;30.57;15.93;;;;;;;;;;4950095;28;20190;-85
2022/03/04 09:42:57;;;;;;;29.10;16.67;;;;;;;;;;4957748;28;20218;-86
2022/03/04 09:46:01;;;;;;;28.97;16.50;;;;;;;;;;4959800;28;20175;-86
2022/03/04 09:49:06;;;;;;;24.77;16.03;;;;;;;;;;4949606;28;20191;-86
2022/03/04 09:52:12;;;;;;;25.87;15.90;;;;;;;;;;4960581;28;20226;-86
2022/03/04 09:55:17;;;;;;;30.03;16.07;;;;;;;;;;4960634;28;20183;-87
2022/03/04 09:58:21;;;;;;;28.43;16.97;;;;;;;;;;4951862;29;20334;-86
2022/03/04 10:01:25;;;;;;;25.77;15.67;;;;;;;;;;4946308;28;20186;-86
2022/03/04 10:04:31;;;;;;;25.73;15.93;;;;;;;;;;4959626;28;20194;-86
2022/03/04 10:07:41;;;;;;;26.07;16.83;;;;;;;;;;4959814;28;20191;-86
2022/03/04 10:10:49;;;;;;;25.20;15.70;;;;;;;;;;4959369;28;20187;-87
2022/03/04 10:13:55;;;;;;;28.53;17.17;;;;;;;;;;4963532;28;20511;-88
2022/03/04 10:17:00;;;;;;;28.93;17.30;;;;;;;;;;4944119;29;20192;-87
2022/03/04 10:20:08;;;;;;;29.47;16.53;;;;;;;;;;4960498;28;20182;-87
2022/03/04 10:23:14;;;;;;;27.27;16.10;;;;;;;;;;4951393;28;20214;-88
2022/03/04 10:26:27;;;;;;;25.30;15.90;;;;;;;;;;4963673;28;20183;-88
2022/03/04 10:29:33;;;;;;;25.03;15.90;;;;;;;;;;5010229;28;20214;-89
2022/03/04 10:32:37;;;;;;;25.03;17.07;;;;;;;;;;4963492;28;20242;-88
2022/03/04 10:35:41;;;;;;;25.57;15.87;;;;;;;;;;4952352;28;20190;-88
2022/03/04 10:39:08;;;;;;;24.93;15.50;;;;;;;;;;4953959;28;20553;-88
2022/03/04 10:42:12;;;;;;;24.63;16.17;;;;;;;;;;4952208;28;20237;-88
2022/03/04 10:45:19;;;;;;;23.97;15.63;;;;;;;;;;4944415;29;20195;-88
2022/03/04 10:48:25;;;;;;;25.13;15.93;;;;;;;;;;4962507;28;20210;-88
2022/03/04 10:51:38;;;;;;;22.73;15.90;;;;;;;;;;4961518;28;20263;-89
2022/03/04 10:54:51;;;;;;;25.53;16.70;;;;;;;;;;4951643;28;20217;-87
2022/03/04 10:57:56;;;;;;;41.70;17.20;;;;;;;;;;4956651;28;20203;-88
2022/03/04 11:01:02;;;;;;;24.00;15.40;;;;;;;;;;4947297;28;20194;-88
2022/03/04 11:04:06;;;;;;;25.10;15.43;;;;;;;;;;4956173;28;20198;-88
2022/03/04 11:07:12;;;;;;;24.20;15.67;;;;;;;;;;4961812;28;20582;-88
2022/03/04 11:10:18;;;;;;;26.50;16.57;;;;;;;;;;4960155;28;20194;-88
2022/03/04 11:13:24;;;;;;;24.07;15.93;;;;;;;;;;4962291;28;20719;-88
2022/03/04 11:16:28;;;;;;;22.00;15.60;;;;;;;;;;4965253;28;20206;-88
2022/03/04 11:19:34;;;;;;;24.80;16.07;;;;;;;;;;4959502;28;20206;-88
2022/03/04 11:22:40;;;;;;;23.57;14.93;;;;;;;;;;4961527;28;20226;-88
2022/03/04 11:25:50;;;;;;;23.83;15.23;;;;;;;;;;4951050;28;20200;-88
2022/03/04 11:28:54;;;;;;;24.27;15.33;;;;;;;;;;4962101;28;20203;-88
2022/03/04 11:31:58;;;;;;;26.90;17.37;;;;;;;;;;4950664;28;20238;-88
2022/03/04 11:35:04;;;;;;;27.57;16.13;;;;;;;;;;4957486;28;20650;-88
2022/03/04 11:38:12;;;;;;;25.90;16.23;;;;;;;;;;4984149;28;20179;-86
2022/03/04 11:41:30;;;;;;;26.27;16.17;;;;;;;;;;4971140;28;20196;-87
2022/03/04 11:44:52;;;;;;;26.57;15.60;;;;;;;;;;4951530;28;20183;-88
2022/03/04 11:48:05;;;;;;;21.00;14.10;;;;;;;;;;4942614;29;20650;-88
2022/03/04 11:51:20;;;;;;;25.10;15.33;;;;;;;;;;4932150;29;20631;-88
2022/03/04 11:54:25;;;;;;;26.27;15.40;;;;;;;;;;4953506;29;20184;-88
2022/03/04 11:57:31;;;;;;;23.20;15.20;;;;;;;;;;5000470;28;20188;-88
2022/03/04 12:00:40;;;;;;;23.47;15.47;;;;;;;;;;4955238;28;20187;-88
2022/03/04 12:04:07;;;;;;;24.00;14.33;;;;;;;;;;4954989;28;20183;-88
2022/03/04 12:07:11;;;;;;;23.40;14.10;;;;;;;;;;4960902;28;20191;-88
2022/03/04 12:10:22;;;;;;;25.43;14.90;;;;;;;;;;4950967;28;20182;-88
2022/03/04 12:13:27;;;;;;;24.33;13.83;;;;;;;;;;4960420;28;21547;-88
2022/03/04 12:16:47;;;;;;;21.97;13.43;;;;;;;;;;4960092;28;20203;-88
2022/03/04 12:19:55;;;;;;;27.53;14.30;;;;;;;;;;4942401;28;20196;-88
2022/03/04 12:23:07;;;;;;;18.27;11.70;;;;;;;;;;4943503;29;20211;-88
2022/03/04 12:26:26;;;;;;;16.83;11.37;;;;;;;;;;4943551;28;20184;-88
2022/03/04 12:29:45;;;;;;;19.70;11.60;;;;;;;;;;4961041;28;20179;-88
2022/03/04 12:32:54;;;;;;;19.27;11.03;;;;;;;;;;4941819;29;20227;-88
2022/03/04 12:36:00;;;;;;;16.97;10.07;;;;;;;;;;4941589;29;20179;-88
2022/03/04 12:39:05;;;;;;;19.23;11.10;;;;;;;;;;4942761;29;20298;-88
2022/03/04 12:42:10;;;;;;;17.73;10.50;;;;;;;;;;4984868;22;20235;-89
2022/03/04 12:45:14;;;;;;;16.53;10.13;;;;;;;;;;5039873;28;20182;-89
2022/03/04 12:48:19;;;;;;;15.37;9.73;;;;;;;;;;5041898;28;20194;-87
2022/03/04 12:51:31;;;;;;;19.40;9.80;;;;;;;;;;5052309;28;20187;-88
2022/03/04 12:54:35;;;;;;;13.40;8.33;;;;;;;;;;5031659;28;20188;-86
2022/03/04 12:57:41;;;;;;;14.60;7.67;;;;;;;;;;5035038;28;20662;-89
2022/03/04 13:00:58;;;;;;;12.53;7.70;;;;;;;;;;5045040;28;20647;-86
2022/03/04 13:04:06;;;;;;;12.10;6.93;;;;;;;;;;5042164;28;20184;-89
2022/03/04 13:07:10;;;;;;;10.87;6.43;;;;;;;;;;5030794;28;20642;-88
2022/03/04 13:10:15;;;;;;;12.30;6.70;;;;;;;;;;5030691;28;20180;-87
2022/03/04 13:13:19;;;;;;;9.17;6.40;;;;;;;;;;5031456;28;20224;-86
2022/03/04 13:16:27;;;;;;;15.27;6.30;;;;;;;;;;5034753;28;20196;-87
2022/03/04 13:19:36;;;;;;;10.17;6.17;;;;;;;;;;5023944;28;20580;-86
2022/03/04 13:22:40;;;;;;;10.67;5.87;;;;;;;;;;5010783;28;20209;-87
2022/03/04 13:25:44;;;;;;;10.83;6.30;;;;;;;;;;5025630;28;20200;-89
2022/03/04 13:28:59;;;;;;;8.70;5.27;;;;;;;;;;5032029;28;20203;-87
2022/03/04 13:32:20;;;;;;;12.43;6.23;;;;;;;;;;5023049;28;20702;-86
2022/03/04 13:35:24;;;;;;;13.17;5.83;;;;;;;;;;5024665;28;20193;-87
2022/03/04 13:38:29;;;;;;;6.50;4.93;;;;;;;;;;5041505;28;20180;-89
2022/03/04 13:41:33;;;;;;;7.73;4.97;;;;;;;;;;5030297;28;20192;-88
2022/03/04 13:45:00;;;;;;;7.57;4.73;;;;;;;;;;5030320;28;20184;-89
2022/03/04 13:48:06;;;;;;;10.03;5.23;;;;;;;;;;5033634;28;20588;-86
2022/03/04 13:51:11;;;;;;;7.17;4.77;;;;;;;;;;5037445;28;20176;-87
2022/03/04 13:54:15;;;;;;;7.50;4.70;;;;;;;;;;5034241;28;20176;-87
2022/03/04 13:57:33;;;;;;;7.17;4.50;;;;;;;;;;5034488;28;20512;-87
2022/03/04 14:00:39;;;;;;;7.13;4.63;;;;;;;;;;5034081;28;20184;-87
2022/03/04 14:03:46;;;;;;;8.03;4.70;;;;;;;;;;5047649;28;20220;-87
2022/03/04 14:06:51;;;;;;;9.97;4.67;;;;;;;;;;5034174;28;20180;-87
2022/03/04 14:09:55;;;;;;;8.67;4.20;;;;;;;;;;5033998;28;20184;-87
2022/03/04 14:13:00;;;;;;;7.97;4.60;;;;;;;;;;5022354;28;20228;-87
2022/03/04 14:16:06;;;;;;;8.23;4.63;;;;;;;;;;5033843;28;20180;-87
2022/03/04 14:19:10;;;;;;;6.20;4.07;;;;;;;;;;5033696;28;20539;-87
2022/03/04 14:22:14;;;;;;;5.27;3.83;;;;;;;;;;5034056;28;20598;-87
2022/03/04 14:25:19;;;;;;;5.33;4.07;;;;;;;;;;5033485;28;20195;-87
2022/03/04 14:28:23;;;;;;;7.00;3.30;;;;;;;;;;5033423;28;20196;-87
2022/03/04 14:31:27;;;;;;;6.80;3.40;;;;;;;;;;5033542;28;20176;-87
2022/03/04 14:34:32;;;;;;;4.77;3.43;;;;;;;;;;5033756;28;20533;-87
2022/03/04 14:37:39;;;;;;;5.03;3.03;;;;;;;;;;5034202;28;20184;-87
2022/03/04 14:40:43;;;;;;;5.90;3.30;;;;;;;;;;5033191;28;20203;-87
2022/03/04 14:43:47;;;;;;;5.70;3.47;;;;;;;;;;5032441;28;20258;-87
2022/03/04 14:46:51;;;;;;;7.83;3.67;;;;;;;;;;5033155;28;20184;-87
2022/03/04 14:49:55;;;;;;;6.27;3.60;;;;;;;;;;5030040;28;20566;-89
2022/03/04 14:52:59;;;;;;;6.17;3.17;;;;;;;;;;5023959;28;20224;-87
2022/03/04 14:56:04;;;;;;;9.20;3.70;;;;;;;;;;5024477;28;20180;-87
2022/03/04 14:59:08;;;;;;;6.40;3.30;;;;;;;;;;5051068;28;20192;-87
2022/03/04 15:02:12;;;;;;;6.17;3.13;;;;;;;;;;5032512;28;20211;-87
2022/03/04 15:05:19;;;;;;;4.97;2.83;;;;;;;;;;5021632;28;20181;-86
2022/03/04 15:08:23;;;;;;;5.67;3.10;;;;;;;;;;5017138;28;20208;-85
2022/03/04 15:11:27;;;;;;;7.10;3.50;;;;;;;;;;5033441;28;20192;-85
2022/03/04 15:14:32;;;;;;;5.67;3.13;;;;;;;;;;5044195;28;20919;-86
2022/03/04 15:17:37;;;;;;;7.33;3.37;;;;;;;;;;5034217;28;20176;-86
2022/03/04 15:20:41;;;;;;;5.20;3.50;;;;;;;;;;5033438;28;20191;-86
2022/03/04 15:23:45;;;;;;;5.83;3.30;;;;;;;;;;5033023;28;20216;-86
2022/03/04 15:26:49;;;;;;;9.77;3.50;;;;;;;;;;5033240;28;20572;-86
2022/03/04 15:29:53;;;;;;;5.30;3.40;;;;;;;;;;5030183;28;20184;-85
2022/03/04 15:32:58;;;;;;;13.70;3.93;;;;;;;;;;5031806;28;20224;-87
2022/03/04 15:36:03;;;;;;;5.47;3.20;;;;;;;;;;5032147;28;20192;-85
2022/03/04 15:39:08;;;;;;;7.57;3.20;;;;;;;;;;5023784;28;20188;-86
2022/03/04 15:42:12;;;;;;;7.90;3.70;;;;;;;;;;5041429;28;20228;-85
2022/03/04 15:45:17;;;;;;;5.93;3.63;;;;;;;;;;5031916;28;20243;-84
2022/03/04 15:48:21;;;;;;;6.50;3.53;;;;;;;;;;5024154;28;20176;-84
2022/03/04 15:51:25;;;;;;;7.07;3.50;;;;;;;;;;5042144;28;20180;-85
2022/03/04 15:54:30;;;;;;;6.63;3.60;;;;;;;;;;5033753;28;20659;-85
2022/03/04 15:57:35;;;;;;;7.40;3.93;;;;;;;;;;5056276;28;20188;-85
2022/03/04 16:00:39;;;;;;;5.70;3.47;;;;;;;;;;5033353;28;20196;-85
2022/03/04 16:03:43;;;;;;;7.10;3.73;;;;;;;;;;5029002;28;20224;-86
2022/03/04 16:06:48;;;;;;;6.07;3.80;;;;;;;;;;5020267;28;20188;-86
2022/03/04 16:09:52;;;;;;;7.23;4.17;;;;;;;;;;5033695;28;20199;-85
2022/03/04 16:12:57;;;;;;;8.20;4.27;;;;;;;;;;5024834;28;20579;-85
2022/03/04 16:16:07;;;;;;;6.97;4.10;;;;;;;;;;5013326;28;20196;-84
2022/03/04 16:19:11;;;;;;;6.50;3.60;;;;;;;;;;5029061;28;20195;-85
2022/03/04 16:22:16;;;;;;;11.57;4.10;;;;;;;;;;5022285;28;20694;-85
2022/03/04 16:25:20;;;;;;;7.40;4.50;;;;;;;;;;5032177;28;21144;-85
2022/03/04 16:28:24;;;;;;;8.53;4.17;;;;;;;;;;5031392;28;21146;-86
2022/03/04 16:31:29;;;;;;;8.97;4.50;;;;;;;;;;5029409;28;20584;-87
2022/03/04 16:34:38;;;;;;;8.57;5.00;;;;;;;;;;5014115;28;20638;-86
2022/03/04 16:37:42;;;;;;;9.70;4.90;;;;;;;;;;5028378;28;20609;-87
2022/03/04 16:40:47;;;;;;;10.60;4.60;;;;;;;;;;5031422;28;20590;-87
2022/03/04 16:43:52;;;;;;;8.27;4.70;;;;;;;;;;5032327;28;21066;-86
2022/03/04 16:46:56;;;;;;;7.80;4.30;;;;;;;;;;5032899;28;20590;-85
2022/03/04 16:50:00;;;;;;;9.23;5.67;;;;;;;;;;5017898;28;20587;-87
2022/03/04 16:53:04;;;;;;;7.80;4.80;;;;;;;;;;5019004;28;20618;-87
2022/03/04 16:56:09;;;;;;;8.43;4.73;;;;;;;;;;5030883;28;20547;-86
2022/03/04 16:59:13;;;;;;;12.80;5.23;;;;;;;;;;5030836;28;21090;-87
2022/03/04 17:02:18;;;;;;;7.03;4.67;;;;;;;;;;5019228;28;20614;-86
2022/03/04 17:05:23;;;;;;;10.90;4.43;;;;;;;;;;5030390;28;20594;-87
2022/03/04 17:08:28;;;;;;;6.93;4.27;;;;;;;;;;5029709;28;20547;-86
2022/03/04 17:11:32;;;;;;;10.97;5.20;;;;;;;;;;5041562;28;20543;-86
2022/03/04 17:14:37;;;;;;;7.80;4.50;;;;;;;;;;5030665;28;20598;-86
2022/03/04 17:17:41;;;;;;;12.63;4.87;;;;;;;;;;5030841;28;20539;-86
2022/03/04 17:20:45;;;;;;;7.93;4.80;;;;;;;;;;5019364;28;20535;-86
2022/03/04 17:23:49;;;;;;;6.50;4.10;;;;;;;;;;5030935;28;20606;-87
2022/03/04 17:26:53;;;;;;;11.70;4.37;;;;;;;;;;5030557;28;21089;-88
2022/03/04 17:29:59;;;;;;;6.67;4.57;;;;;;;;;;5030445;28;20555;-88
2022/03/04 17:33:03;;;;;;;7.97;4.30;;;;;;;;;;5029600;28;21184;-88
2022/03/04 17:36:07;;;;;;;11.70;5.50;;;;;;;;;;5030304;28;20598;-89
2022/03/04 17:39:11;;;;;;;9.60;5.27;;;;;;;;;;5019067;28;20539;-88
2022/03/04 17:42:15;;;;;;;9.83;5.00;;;;;;;;;;5030252;28;20630;-87
2022/03/04 17:45:20;;;;;;;10.70;4.87;;;;;;;;;;5030097;28;20595;-88
2022/03/04 17:48:27;;;;;;;9.63;4.90;;;;;;;;;;5030233;28;20555;-87
2022/03/04 17:51:34;;;;;;;10.03;5.20;;;;;;;;;;5030735;28;20543;-87
2022/03/04 17:54:39;;;;;;;7.70;5.03;;;;;;;;;;5030708;28;20939;-87
2022/03/04 17:57:44;;;;;;;24.00;12.70;;;;;;;;;;5010054;28;20544;-87
2022/03/04 18:00:48;;;;;;;30.17;16.40;;;;;;;;;;5010658;28;20544;-87
2022/03/04 18:03:53;;;;;;;17.90;10.40;;;;;;;;;;5010459;28;20619;-89
2022/03/04 18:06:57;;;;;;;13.57;7.43;;;;;;;;;;5014472;28;20599;-89